Time;durP1;ratioP1;P1;durP2;ratioP2;P2;SDS_P1;SDS_P2;PMS_P1;PMS_P2;Temp;Humidity;BMP_temperature;BMP_pressure;BME280_temperature;BME280_humidity;BME280_pressure;Samples;Min_cycle;Max_cycle;Signal;HPM_P1;HPM_P2
2021/09/30 10:25:13;;;;;;;8.93;2.53;;;11.80;99.90;;;;;;5070876;28;20550;-74
2021/09/30 10:27:39;;;;;;;2.00;1.88;;;11.90;99.90;;;;;;5069807;28;20176;-74
2021/09/30 10:30:05;;;;;;;9.55;3.03;;;12.00;99.90;;;;;;5070849;28;20234;-75
2021/09/30 10:32:50;;;;;;;11.30;2.63;;;12.00;99.90;;;;;;5071005;28;20175;-75
2021/09/30 10:35:30;;;;;;;3.85;2.00;;;12.20;99.90;;;;;;5070893;28;20175;-74
2021/09/30 10:38:29;;;;;;;5.55;2.78;;;12.20;99.90;;;;;;5070730;28;20183;-74
2021/09/30 10:41:05;;;;;;;6.10;2.50;;;12.30;99.90;;;;;;5066293;28;20258;-74
2021/09/30 10:43:42;;;;;;;2.25;2.10;;;12.40;99.90;;;;;;5070547;28;20188;-74
2021/09/30 10:46:30;;;;;;;5.25;2.08;;;12.50;99.90;;;;;;5070383;28;20203;-75
2021/09/30 10:48:56;;;;;;;10.52;2.17;;;12.50;99.90;;;;;;5069163;28;20168;-75
2021/09/30 10:51:22;;;;;;;7.55;2.38;;;12.50;99.90;;;;;;5069349;28;20169;-75
2021/09/30 10:53:48;;;;;;;3.90;2.35;;;12.60;99.90;;;;;;5070527;28;20177;-75
2021/09/30 10:56:39;;;;;;;5.82;2.10;;;12.70;99.90;;;;;;5070345;28;20180;-75
2021/09/30 10:59:08;;;;;;;5.07;2.35;;;12.80;99.90;;;;;;5070483;28;20176;-75
2021/09/30 11:01:45;;;;;;;5.15;2.20;;;12.80;99.90;;;;;;5070284;28;20560;-75
2021/09/30 11:04:11;;;;;;;7.30;2.50;;;12.80;99.90;;;;;;5069018;28;20314;-75
2021/09/30 11:06:37;;;;;;;6.13;2.30;;;12.80;99.90;;;;;;5070162;28;20187;-75
2021/09/30 11:09:17;;;;;;;3.63;2.22;;;12.90;99.90;;;;;;5070267;28;20165;-75
2021/09/30 11:11:46;;;;;;;4.82;1.70;;;12.90;99.90;;;;;;5070267;28;20252;-75
2021/09/30 11:14:13;;;;;;;6.55;2.53;;;12.90;99.90;;;;;;5070019;28;20169;-75
2021/09/30 11:16:44;;;;;;;7.60;1.83;;;12.90;99.90;;;;;;5069845;28;20184;-75
2021/09/30 11:19:33;;;;;;;5.93;3.25;;;13.10;99.90;;;;;;5068763;28;20172;-75
2021/09/30 11:22:31;;;;;;;5.50;2.13;;;13.00;99.90;;;;;;5069991;28;20216;-75
2021/09/30 11:24:57;;;;;;;3.30;1.58;;;13.00;99.90;;;;;;5069328;28;20258;-75
2021/09/30 11:27:29;;;;;;;5.80;2.25;;;12.90;99.90;;;;;;5069577;28;20214;-75
2021/09/30 11:30:16;;;;;;;3.50;1.73;;;12.70;99.90;;;;;;5068495;28;20173;-75
2021/09/30 11:32:42;;;;;;;4.30;2.28;;;12.80;99.90;;;;;;5069579;28;20175;-75
2021/09/30 11:35:09;;;;;;;2.60;1.60;;;12.70;99.90;;;;;;5064400;28;20518;-75
2021/09/30 11:37:40;;;;;;;2.35;1.95;;;13.00;99.90;;;;;;5056540;28;20188;-75
2021/09/30 11:40:14;;;;;;;7.80;2.17;;;13.10;99.90;;;;;;5056392;28;20181;-74
2021/09/30 11:42:42;;;;;;;2.80;1.63;;;12.70;99.90;;;;;;5056452;28;20177;-75
2021/09/30 11:45:14;;;;;;;1.70;1.60;;;12.60;99.90;;;;;;5056385;28;20533;-75
2021/09/30 11:47:41;;;;;;;4.40;2.08;;;12.70;99.90;;;;;;5056369;28;20172;-75
2021/09/30 11:50:19;;;;;;;9.05;2.10;;;12.60;99.90;;;;;;5055137;28;20169;-74
2021/09/30 11:52:55;;;;;;;5.40;1.95;;;12.70;99.90;;;;;;5056287;28;20173;-75
2021/09/30 11:55:20;;;;;;;4.55;1.95;;;12.70;99.90;;;;;;5055018;28;20168;-75
2021/09/30 11:58:06;;;;;;;3.92;2.08;;;12.80;99.90;;;;;;5056039;28;20176;-74
2021/09/30 12:00:35;;;;;;;10.90;2.10;;;12.90;99.90;;;;;;5055734;28;20212;-75
2021/09/30 12:03:03;;;;;;;4.03;2.13;;;12.90;99.90;;;;;;5055771;28;20177;-75
2021/09/30 12:05:33;;;;;;;5.25;1.92;;;13.00;99.90;;;;;;5054637;28;20642;-75
2021/09/30 12:08:02;;;;;;;7.38;1.85;;;13.00;99.90;;;;;;5055842;28;20172;-75
2021/09/30 12:10:28;;;;;;;7.05;1.67;;;13.20;99.90;;;;;;5055853;28;20566;-75
2021/09/30 12:12:54;;;;;;;2.88;1.45;;;13.20;99.90;;;;;;5055533;28;20173;-74
2021/09/30 12:15:20;;;;;;;5.90;1.75;;;13.30;99.90;;;;;;5055200;28;20262;-75
2021/09/30 12:17:46;;;;;;;3.15;2.22;;;13.10;99.90;;;;;;5054078;28;20200;-75
2021/09/30 12:20:14;;;;;;;4.25;1.70;;;13.00;99.90;;;;;;5055298;28;20169;-75
2021/09/30 12:22:53;;;;;;;3.55;1.80;;;13.10;99.90;;;;;;5055213;28;20185;-75
2021/09/30 12:25:28;;;;;;;2.67;1.85;;;13.00;99.90;;;;;;5055160;28;20189;-75
2021/09/30 12:27:58;;;;;;;2.67;1.60;;;13.00;99.90;;;;;;5055216;28;20164;-75
2021/09/30 12:30:29;;;;;;;6.38;1.80;;;13.20;99.90;;;;;;5055527;28;20509;-75
2021/09/30 12:33:00;;;;;;;3.47;2.00;;;13.30;99.90;;;;;;5055275;28;20200;-74
2021/09/30 12:35:27;;;;;;;7.22;2.00;;;13.20;99.90;;;;;;5055288;28;20161;-75
2021/09/30 12:37:56;;;;;;;3.17;1.40;;;13.30;99.90;;;;;;5055234;28;20175;-75
2021/09/30 12:40:26;;;;;;;1.88;1.70;;;13.40;99.90;;;;;;5055258;28;20172;-75
2021/09/30 12:43:12;;;;;;;2.95;1.50;;;13.40;99.90;;;;;;5055425;28;20166;-75
2021/09/30 12:45:45;;;;;;;3.38;1.60;;;13.40;99.90;;;;;;5055181;28;20639;-75
2021/09/30 12:48:21;;;;;;;5.60;2.17;;;13.50;99.90;;;;;;5054030;28;20645;-75
2021/09/30 12:50:50;;;;;;;3.05;1.80;;;13.40;99.90;;;;;;5054877;28;20161;-75
2021/09/30 12:53:19;;;;;;;3.28;1.77;;;13.60;99.90;;;;;;5054712;28;20172;-75
2021/09/30 12:55:47;;;;;;;7.03;1.63;;;13.70;99.90;;;;;;5053544;28;20173;-75
2021/09/30 12:58:30;;;;;;;5.22;1.88;;;13.80;99.90;;;;;;5054782;28;20177;-75
2021/09/30 13:00:57;;;;;;;3.30;1.60;;;13.90;99.90;;;;;;5053477;28;20177;-76
2021/09/30 13:03:24;;;;;;;2.40;1.90;;;14.00;99.90;;;;;;5053137;28;20189;-75
2021/09/30 13:05:52;;;;;;;3.67;1.50;;;14.10;99.90;;;;;;5054483;28;20165;-75
2021/09/30 13:08:53;;;;;;;6.43;1.90;;;14.10;99.90;;;;;;5054521;28;20165;-75
2021/09/30 13:11:33;;;;;;;3.20;1.60;;;14.20;99.90;;;;;;5052460;28;20200;-75
2021/09/30 13:14:25;;;;;;;3.25;1.67;;;14.30;99.90;;;;;;5054121;28;20638;-75
2021/09/30 13:17:08;;;;;;;2.67;1.70;;;14.30;99.90;;;;;;5054292;28;20279;-75
2021/09/30 13:19:49;;;;;;;2.97;1.42;;;14.30;99.90;;;;;;5053258;28;20661;-75
2021/09/30 13:22:28;;;;;;;4.18;1.70;;;14.20;99.90;;;;;;5054501;28;20242;-75
2021/09/30 13:24:56;;;;;;;3.20;1.75;;;14.20;99.90;;;;;;5052987;28;20242;-75
2021/09/30 13:27:27;;;;;;;4.20;1.40;;;14.20;99.90;;;;;;5054226;28;20235;-75
2021/09/30 13:29:53;;;;;;;6.93;1.63;;;14.10;99.90;;;;;;5054392;28;20643;-75
2021/09/30 13:32:19;;;;;;;3.75;1.42;;;14.20;99.90;;;;;;5054213;28;20187;-75
2021/09/30 13:34:45;;;;;;;1.95;1.33;;;14.00;99.90;;;;;;5054119;28;20261;-75
2021/09/30 13:37:11;;;;;;;3.58;1.40;;;14.30;99.90;;;;;;5054115;28;20252;-75
2021/09/30 13:39:37;;;;;;;5.75;1.70;;;14.30;99.90;;;;;;5054398;28;20177;-72
2021/09/30 13:42:04;;;;;;;3.83;1.80;;;14.40;99.90;;;;;;5053108;28;20533;-72
2021/09/30 13:44:29;;;;;;;5.60;1.73;;;14.30;99.90;;;;;;5054275;28;20196;-72
2021/09/30 13:46:55;;;;;;;9.95;1.60;;;14.20;99.90;;;;;;5054225;28;20169;-72
2021/09/30 13:49:21;;;;;;;2.53;1.45;;;14.00;99.90;;;;;;5054192;28;20263;-72
2021/09/30 13:51:46;;;;;;;3.17;1.38;;;13.80;99.90;;;;;;5054167;28;20222;-71
2021/09/30 13:54:12;;;;;;;3.50;1.88;;;13.90;99.90;;;;;;5054252;28;20175;-72
2021/09/30 13:56:38;;;;;;;2.03;1.23;;;13.90;99.90;;;;;;5054275;28;20613;-72
2021/09/30 13:59:03;;;;;;;5.32;1.60;;;13.80;99.90;;;;;;5053963;28;20177;-72
2021/09/30 14:01:29;;;;;;;3.85;1.50;;;13.80;99.90;;;;;;5054003;28;20173;-72
2021/09/30 14:03:55;;;;;;;3.72;1.40;;;13.80;99.90;;;;;;5053929;28;20543;-72
2021/09/30 14:06:21;;;;;;;5.45;1.70;;;13.80;99.90;;;;;;5053929;28;20161;-72
2021/09/30 14:08:49;;;;;;;1.95;1.50;;;13.60;99.90;;;;;;5052888;28;20264;-72
2021/09/30 14:11:16;;;;;;;3.03;1.60;;;13.60;99.90;;;;;;5053776;28;20254;-71
2021/09/30 14:13:43;;;;;;;1.88;1.50;;;13.50;99.90;;;;;;5053891;28;20259;-72
2021/09/30 14:16:09;;;;;;;5.93;1.50;;;13.50;99.90;;;;;;5053893;28;20193;-72
2021/09/30 14:18:36;;;;;;;4.60;1.88;;;13.60;99.90;;;;;;5053740;28;20255;-72
2021/09/30 14:21:02;;;;;;;2.55;1.75;;;13.50;99.90;;;;;;5053835;28;20578;-72
2021/09/30 14:23:28;;;;;;;4.95;1.48;;;13.50;99.90;;;;;;5052206;28;20221;-72
2021/09/30 14:25:54;;;;;;;3.17;1.45;;;13.60;99.90;;;;;;5052662;28;20214;-72
2021/09/30 14:28:21;;;;;;;3.70;1.50;;;13.60;99.90;;;;;;5053833;28;20169;-72
2021/09/30 14:30:48;;;;;;;7.47;2.17;;;13.70;99.90;;;;;;5053676;28;20224;-72
2021/09/30 14:33:14;;;;;;;4.93;1.55;;;13.70;99.90;;;;;;5053619;28;20180;-72
2021/09/30 14:35:39;;;;;;;5.13;2.03;;;13.80;99.90;;;;;;5053699;28;20173;-72
2021/09/30 14:38:06;;;;;;;4.75;1.60;;;13.80;99.90;;;;;;5053592;28;20255;-72
2021/09/30 14:40:33;;;;;;;2.97;1.83;;;13.80;99.90;;;;;;5053645;28;20176;-72
2021/09/30 14:42:59;;;;;;;3.42;2.03;;;13.80;99.90;;;;;;5053530;28;20173;-72
2021/09/30 14:45:25;;;;;;;2.90;1.40;;;13.70;99.90;;;;;;5053479;28;20169;-72
2021/09/30 14:47:51;;;;;;;7.63;1.73;;;13.80;99.90;;;;;;5053523;28;20165;-72
2021/09/30 14:50:16;;;;;;;1.85;1.75;;;13.90;99.90;;;;;;5053455;28;20649;-72
2021/09/30 14:52:42;;;;;;;6.30;2.30;;;14.00;99.90;;;;;;5053643;28;20165;-72
2021/09/30 14:55:09;;;;;;;6.43;1.80;;;14.10;99.90;;;;;;5053547;28;20173;-72
2021/09/30 14:57:34;;;;;;;4.55;1.75;;;14.00;99.90;;;;;;5052229;28;20184;-72
2021/09/30 15:00:00;;;;;;;6.95;1.67;;;14.00;99.90;;;;;;5053377;28;20174;-72
2021/09/30 15:02:27;;;;;;;3.05;1.58;;;14.00;99.90;;;;;;5053409;28;20180;-72
2021/09/30 15:04:53;;;;;;;3.10;1.42;;;14.00;99.90;;;;;;5053100;28;20780;-72
2021/09/30 15:07:23;;;;;;;4.50;1.40;;;14.10;99.90;;;;;;5053348;28;20203;-72
2021/09/30 15:09:49;;;;;;;4.07;1.48;;;14.30;99.90;;;;;;5053605;28;20630;-72
2021/09/30 15:12:15;;;;;;;2.00;1.55;;;14.50;99.90;;;;;;5056982;28;20192;-72
2021/09/30 15:14:40;;;;;;;2.22;1.45;;;14.60;99.90;;;;;;5057245;28;20165;-72
2021/09/30 15:17:12;;;;;;;6.60;2.53;;;14.60;99.90;;;;;;5055729;28;20532;-72
2021/09/30 15:22:22;;;;;;;3.22;1.48;;;14.50;99.90;;;;;;5057171;28;20226;-72
2021/09/30 15:24:48;;;;;;;5.53;1.65;;;14.40;99.90;;;;;;5056593;28;20303;-72
2021/09/30 15:27:16;;;;;;;6.93;2.53;;;14.40;99.90;;;;;;5056856;28;20170;-71
2021/09/30 15:29:41;;;;;;;7.65;1.50;;;14.30;99.90;;;;;;5056706;28;20173;-72
2021/09/30 15:32:07;;;;;;;4.43;1.48;;;14.20;99.90;;;;;;5056705;28;20169;-73
2021/09/30 15:34:33;;;;;;;5.68;2.70;;;14.10;99.90;;;;;;5056708;28;20227;-74
2021/09/30 15:37:00;;;;;;;3.00;1.63;;;14.00;99.90;;;;;;5056619;28;20165;-74
2021/09/30 15:39:25;;;;;;;5.72;1.83;;;13.90;99.90;;;;;;5056618;28;20260;-74
2021/09/30 15:41:51;;;;;;;3.63;1.55;;;13.80;99.90;;;;;;5055306;28;20275;-74
2021/09/30 15:44:19;;;;;;;3.88;1.67;;;13.60;99.90;;;;;;5056533;28;20235;-74
2021/09/30 15:46:49;;;;;;;2.75;1.40;;;13.70;99.90;;;;;;5056629;28;20193;-74
2021/09/30 15:49:15;;;;;;;2.55;1.20;;;13.70;99.90;;;;;;5056336;28;20158;-74
2021/09/30 15:51:41;;;;;;;5.85;1.60;;;13.60;99.90;;;;;;5056500;28;20166;-74
2021/09/30 15:54:06;;;;;;;2.10;1.30;;;13.70;99.90;;;;;;5056164;28;20239;-74
2021/09/30 15:56:32;;;;;;;5.00;1.15;;;13.40;99.90;;;;;;5056327;28;20169;-74
2021/09/30 15:58:57;;;;;;;3.45;1.50;;;13.50;99.90;;;;;;5056349;28;20486;-74
2021/09/30 16:01:28;;;;;;;3.88;1.40;;;13.40;99.90;;;;;;5056127;28;20257;-74
2021/09/30 16:03:53;;;;;;;4.57;1.58;;;13.30;99.90;;;;;;5056156;28;20224;-74
2021/09/30 16:06:19;;;;;;;3.38;1.63;;;13.30;99.90;;;;;;5054847;28;20203;-74
2021/09/30 16:08:45;;;;;;;2.20;1.40;;;13.30;99.90;;;;;;5054660;28;20577;-74
2021/09/30 16:11:11;;;;;;;3.75;1.60;;;13.10;99.90;;;;;;5056001;28;20164;-73
2021/09/30 16:13:37;;;;;;;2.78;2.05;;;13.20;99.90;;;;;;5055833;28;20513;-73
2021/09/30 16:16:03;;;;;;;2.83;1.77;;;13.10;99.90;;;;;;5055861;28;20192;-73
